sensor_id;sensor_type;location;lat;lon;timestamp;P1;durP1;ratioP1;P2;durP2;ratioP2
16662;SDS011;8445;51.270;9.434;2023-07-28T00:02:16;11.60;;;10.57;;
16662;SDS011;8445;51.270;9.434;2023-07-28T00:04:41;10.80;;;10.20;;
16662;SDS011;8445;51.270;9.434;2023-07-28T00:07:07;11.55;;;10.38;;
16662;SDS011;8445;51.270;9.434;2023-07-28T00:09:32;10.65;;;10.05;;
16662;SDS011;8445;51.270;9.434;2023-07-28T00:11:58;11.40;;;10.55;;
16662;SDS011;8445;51.270;9.434;2023-07-28T00:14:24;11.45;;;10.38;;
16662;SDS011;8445;51.270;9.434;2023-07-28T00:16:53;13.20;;;11.20;;
16662;SDS011;8445;51.270;9.434;2023-07-28T00:19:19;11.68;;;10.70;;
16662;SDS011;8445;51.270;9.434;2023-07-28T00:21:46;11.77;;;10.95;;
16662;SDS011;8445;51.270;9.434;2023-07-28T00:24:11;11.88;;;10.98;;
16662;SDS011;8445;51.270;9.434;2023-07-28T00:26:37;11.55;;;10.73;;
16662;SDS011;8445;51.270;9.434;2023-07-28T00:29:02;11.48;;;10.57;;
16662;SDS011;8445;51.270;9.434;2023-07-28T00:31:31;11.07;;;10.25;;
16662;SDS011;8445;51.270;9.434;2023-07-28T00:33:56;10.90;;;9.98;;
16662;SDS011;8445;51.270;9.434;2023-07-28T00:36:22;11.25;;;10.43;;
16662;SDS011;8445;51.270;9.434;2023-07-28T00:38:48;11.05;;;10.25;;
16662;SDS011;8445;51.270;9.434;2023-07-28T00:41:13;12.82;;;10.43;;
16662;SDS011;8445;51.270;9.434;2023-07-28T00:43:38;11.60;;;10.48;;
16662;SDS011;8445;51.270;9.434;2023-07-28T00:46:04;11.38;;;10.57;;
16662;SDS011;8445;51.270;9.434;2023-07-28T00:48:29;11.60;;;10.70;;
16662;SDS011;8445;51.270;9.434;2023-07-28T00:50:55;11.18;;;10.40;;
16662;SDS011;8445;51.270;9.434;2023-07-28T00:53:20;12.18;;;10.90;;
16662;SDS011;8445;51.270;9.434;2023-07-28T00:55:46;11.68;;;10.70;;
16662;SDS011;8445;51.270;9.434;2023-07-28T00:58:12;11.75;;;10.88;;
16662;SDS011;8445;51.270;9.434;2023-07-28T01:00:38;11.15;;;10.38;;
16662;SDS011;8445;51.270;9.434;2023-07-28T01:03:03;11.13;;;10.50;;
16662;SDS011;8445;51.270;9.434;2023-07-28T01:05:34;11.73;;;11.00;;
16662;SDS011;8445;51.270;9.434;2023-07-28T01:08:11;12.00;;;10.88;;
16662;SDS011;8445;51.270;9.434;2023-07-28T01:10:42;12.00;;;11.20;;
16662;SDS011;8445;51.270;9.434;2023-07-28T01:13:07;12.20;;;11.38;;
16662;SDS011;8445;51.270;9.434;2023-07-28T01:15:33;12.68;;;11.73;;
16662;SDS011;8445;51.270;9.434;2023-07-28T01:17:58;12.25;;;11.35;;
16662;SDS011;8445;51.270;9.434;2023-07-28T01:20:24;13.02;;;12.02;;
16662;SDS011;8445;51.270;9.434;2023-07-28T01:28:02;12.23;;;10.70;;
16662;SDS011;8445;51.270;9.434;2023-07-28T01:30:28;11.43;;;10.52;;
16662;SDS011;8445;51.270;9.434;2023-07-28T01:32:54;11.25;;;10.32;;
16662;SDS011;8445;51.270;9.434;2023-07-28T01:35:21;11.23;;;10.40;;
16662;SDS011;8445;51.270;9.434;2023-07-28T01:37:46;11.52;;;10.52;;
16662;SDS011;8445;51.270;9.434;2023-07-28T01:40:19;10.70;;;10.00;;
16662;SDS011;8445;51.270;9.434;2023-07-28T01:42:44;11.23;;;10.35;;
16662;SDS011;8445;51.270;9.434;2023-07-28T01:45:09;10.85;;;10.25;;
16662;SDS011;8445;51.270;9.434;2023-07-28T01:47:35;10.88;;;10.23;;
16662;SDS011;8445;51.270;9.434;2023-07-28T01:50:00;10.82;;;10.13;;
16662;SDS011;8445;51.270;9.434;2023-07-28T01:52:26;10.75;;;9.95;;
16662;SDS011;8445;51.270;9.434;2023-07-28T01:54:51;12.13;;;10.85;;
16662;SDS011;8445;51.270;9.434;2023-07-28T01:57:17;11.77;;;10.90;;
16662;SDS011;8445;51.270;9.434;2023-07-28T01:59:42;11.07;;;10.27;;
16662;SDS011;8445;51.270;9.434;2023-07-28T02:02:07;10.70;;;10.10;;
16662;SDS011;8445;51.270;9.434;2023-07-28T02:04:33;11.68;;;10.85;;
16662;SDS011;8445;51.270;9.434;2023-07-28T02:06:58;11.50;;;10.50;;
16662;SDS011;8445;51.270;9.434;2023-07-28T02:09:23;11.63;;;10.82;;
16662;SDS011;8445;51.270;9.434;2023-07-28T02:11:49;11.57;;;10.65;;
16662;SDS011;8445;51.270;9.434;2023-07-28T02:14:14;11.95;;;11.25;;
16662;SDS011;8445;51.270;9.434;2023-07-28T02:16:39;12.05;;;10.95;;
16662;SDS011;8445;51.270;9.434;2023-07-28T02:19:05;13.02;;;12.02;;
16662;SDS011;8445;51.270;9.434;2023-07-28T02:21:30;12.98;;;11.93;;
16662;SDS011;8445;51.270;9.434;2023-07-28T02:23:56;12.50;;;11.27;;
16662;SDS011;8445;51.270;9.434;2023-07-28T02:26:21;12.63;;;11.40;;
16662;SDS011;8445;51.270;9.434;2023-07-28T02:28:47;11.70;;;10.80;;
16662;SDS011;8445;51.270;9.434;2023-07-28T02:31:13;11.60;;;10.82;;
16662;SDS011;8445;51.270;9.434;2023-07-28T02:33:39;11.57;;;10.70;;
16662;SDS011;8445;51.270;9.434;2023-07-28T02:36:05;11.15;;;10.25;;
16662;SDS011;8445;51.270;9.434;2023-07-28T02:38:31;11.82;;;11.02;;
16662;SDS011;8445;51.270;9.434;2023-07-28T02:41:00;11.35;;;10.75;;
16662;SDS011;8445;51.270;9.434;2023-07-28T02:43:27;11.10;;;10.25;;
16662;SDS011;8445;51.270;9.434;2023-07-28T02:45:54;12.18;;;11.23;;
16662;SDS011;8445;51.270;9.434;2023-07-28T02:48:21;12.38;;;11.32;;
16662;SDS011;8445;51.270;9.434;2023-07-28T02:50:52;12.25;;;11.25;;
16662;SDS011;8445;51.270;9.434;2023-07-28T02:53:18;12.75;;;11.75;;
16662;SDS011;8445;51.270;9.434;2023-07-28T02:55:43;12.25;;;11.38;;
16662;SDS011;8445;51.270;9.434;2023-07-28T02:58:09;12.52;;;11.63;;
16662;SDS011;8445;51.270;9.434;2023-07-28T03:00:37;12.75;;;11.75;;
16662;SDS011;8445;51.270;9.434;2023-07-28T03:03:09;12.55;;;11.48;;
16662;SDS011;8445;51.270;9.434;2023-07-28T03:05:40;12.55;;;11.75;;
16662;SDS011;8445;51.270;9.434;2023-07-28T03:08:17;13.40;;;12.15;;
16662;SDS011;8445;51.270;9.434;2023-07-28T03:10:45;12.95;;;12.05;;
16662;SDS011;8445;51.270;9.434;2023-07-28T03:13:12;11.70;;;10.90;;
16662;SDS011;8445;51.270;9.434;2023-07-28T03:15:41;12.73;;;11.82;;
16662;SDS011;8445;51.270;9.434;2023-07-28T03:18:07;12.27;;;11.30;;
16662;SDS011;8445;51.270;9.434;2023-07-28T03:20:34;12.27;;;11.18;;
16662;SDS011;8445;51.270;9.434;2023-07-28T03:23:03;12.35;;;11.55;;
16662;SDS011;8445;51.270;9.434;2023-07-28T03:25:30;12.32;;;11.52;;
16662;SDS011;8445;51.270;9.434;2023-07-28T03:27:57;13.18;;;12.05;;
16662;SDS011;8445;51.270;9.434;2023-07-28T03:30:23;12.68;;;11.68;;
16662;SDS011;8445;51.270;9.434;2023-07-28T03:32:49;11.95;;;11.05;;
16662;SDS011;8445;51.270;9.434;2023-07-28T03:35:14;11.38;;;10.40;;
16662;SDS011;8445;51.270;9.434;2023-07-28T03:37:47;12.95;;;11.77;;
16662;SDS011;8445;51.270;9.434;2023-07-28T03:40:14;11.60;;;10.68;;
16662;SDS011;8445;51.270;9.434;2023-07-28T03:42:48;11.70;;;10.68;;
16662;SDS011;8445;51.270;9.434;2023-07-28T03:45:15;12.40;;;11.38;;
16662;SDS011;8445;51.270;9.434;2023-07-28T03:47:41;11.93;;;11.23;;
16662;SDS011;8445;51.270;9.434;2023-07-28T03:50:07;12.80;;;11.70;;
16662;SDS011;8445;51.270;9.434;2023-07-28T03:52:33;11.93;;;11.10;;
16662;SDS011;8445;51.270;9.434;2023-07-28T03:54:59;12.10;;;11.30;;
16662;SDS011;8445;51.270;9.434;2023-07-28T03:57:25;12.48;;;11.57;;
16662;SDS011;8445;51.270;9.434;2023-07-28T03:59:53;13.32;;;12.43;;
16662;SDS011;8445;51.270;9.434;2023-07-28T04:02:18;12.50;;;11.60;;
16662;SDS011;8445;51.270;9.434;2023-07-28T04:04:44;12.93;;;11.82;;
16662;SDS011;8445;51.270;9.434;2023-07-28T04:07:09;13.13;;;12.13;;
16662;SDS011;8445;51.270;9.434;2023-07-28T04:09:34;12.32;;;11.52;;
16662;SDS011;8445;51.270;9.434;2023-07-28T04:12:00;13.55;;;12.65;;
16662;SDS011;8445;51.270;9.434;2023-07-28T04:14:25;12.02;;;11.27;;
16662;SDS011;8445;51.270;9.434;2023-07-28T04:16:51;12.48;;;11.57;;
16662;SDS011;8445;51.270;9.434;2023-07-28T04:19:16;12.63;;;11.65;;
16662;SDS011;8445;51.270;9.434;2023-07-28T04:21:41;12.48;;;11.48;;
16662;SDS011;8445;51.270;9.434;2023-07-28T04:24:07;11.40;;;10.55;;
16662;SDS011;8445;51.270;9.434;2023-07-28T04:26:41;10.70;;;10.10;;
16662;SDS011;8445;51.270;9.434;2023-07-28T04:29:20;11.25;;;10.45;;
16662;SDS011;8445;51.270;9.434;2023-07-28T04:31:56;10.98;;;10.25;;
16662;SDS011;8445;51.270;9.434;2023-07-28T04:34:28;12.98;;;11.65;;
16662;SDS011;8445;51.270;9.434;2023-07-28T04:37:21;11.25;;;10.60;;
16662;SDS011;8445;51.270;9.434;2023-07-28T04:39:58;10.80;;;10.05;;
16662;SDS011;8445;51.270;9.434;2023-07-28T04:42:29;10.27;;;9.57;;
16662;SDS011;8445;51.270;9.434;2023-07-28T04:44:57;10.25;;;9.65;;
16662;SDS011;8445;51.270;9.434;2023-07-28T04:47:22;9.65;;;9.15;;
16662;SDS011;8445;51.270;9.434;2023-07-28T04:49:47;9.93;;;9.20;;
16662;SDS011;8445;51.270;9.434;2023-07-28T04:52:32;10.02;;;9.15;;
16662;SDS011;8445;51.270;9.434;2023-07-28T04:55:30;9.45;;;8.85;;
16662;SDS011;8445;51.270;9.434;2023-07-28T04:57:56;9.80;;;8.80;;
16662;SDS011;8445;51.270;9.434;2023-07-28T05:00:24;9.68;;;8.82;;
16662;SDS011;8445;51.270;9.434;2023-07-28T05:02:49;9.98;;;9.00;;
16662;SDS011;8445;51.270;9.434;2023-07-28T05:05:15;10.40;;;9.70;;
16662;SDS011;8445;51.270;9.434;2023-07-28T05:07:44;10.18;;;9.52;;
16662;SDS011;8445;51.270;9.434;2023-07-28T05:10:13;10.13;;;9.23;;
16662;SDS011;8445;51.270;9.434;2023-07-28T05:12:38;10.57;;;9.88;;
16662;SDS011;8445;51.270;9.434;2023-07-28T05:15:05;9.80;;;9.02;;
16662;SDS011;8445;51.270;9.434;2023-07-28T05:17:37;11.02;;;9.82;;
16662;SDS011;8445;51.270;9.434;2023-07-28T05:20:25;10.57;;;9.48;;
16662;SDS011;8445;51.270;9.434;2023-07-28T05:23:19;10.02;;;9.43;;
16662;SDS011;8445;51.270;9.434;2023-07-28T05:25:44;9.93;;;9.25;;
16662;SDS011;8445;51.270;9.434;2023-07-28T05:28:10;10.77;;;9.80;;
16662;SDS011;8445;51.270;9.434;2023-07-28T05:30:38;10.90;;;10.02;;
16662;SDS011;8445;51.270;9.434;2023-07-28T05:33:04;10.50;;;9.55;;
16662;SDS011;8445;51.270;9.434;2023-07-28T05:35:47;10.40;;;9.60;;
16662;SDS011;8445;51.270;9.434;2023-07-28T05:38:13;9.43;;;8.73;;
16662;SDS011;8445;51.270;9.434;2023-07-28T05:40:38;10.00;;;9.02;;
16662;SDS011;8445;51.270;9.434;2023-07-28T05:43:04;10.98;;;8.88;;
16662;SDS011;8445;51.270;9.434;2023-07-28T05:45:29;9.70;;;8.77;;
16662;SDS011;8445;51.270;9.434;2023-07-28T05:47:55;9.77;;;8.93;;
16662;SDS011;8445;51.270;9.434;2023-07-28T05:50:21;10.32;;;8.95;;
16662;SDS011;8445;51.270;9.434;2023-07-28T05:52:46;9.50;;;8.80;;
16662;SDS011;8445;51.270;9.434;2023-07-28T05:55:12;9.25;;;8.65;;
16662;SDS011;8445;51.270;9.434;2023-07-28T05:57:37;10.00;;;9.05;;
16662;SDS011;8445;51.270;9.434;2023-07-28T06:00:06;9.75;;;8.88;;
16662;SDS011;8445;51.270;9.434;2023-07-28T06:02:41;10.20;;;9.25;;
16662;SDS011;8445;51.270;9.434;2023-07-28T06:05:11;9.75;;;9.05;;
16662;SDS011;8445;51.270;9.434;2023-07-28T06:07:37;9.93;;;9.07;;
16662;SDS011;8445;51.270;9.434;2023-07-28T06:10:07;9.80;;;9.18;;
16662;SDS011;8445;51.270;9.434;2023-07-28T06:12:33;10.73;;;9.82;;
16662;SDS011;8445;51.270;9.434;2023-07-28T06:15:02;10.35;;;9.57;;
16662;SDS011;8445;51.270;9.434;2023-07-28T06:17:27;10.70;;;10.10;;
16662;SDS011;8445;51.270;9.434;2023-07-28T06:19:55;10.27;;;9.40;;
16662;SDS011;8445;51.270;9.434;2023-07-28T06:22:20;9.40;;;8.90;;
16662;SDS011;8445;51.270;9.434;2023-07-28T06:24:46;11.23;;;10.18;;
16662;SDS011;8445;51.270;9.434;2023-07-28T06:27:12;10.88;;;9.80;;
16662;SDS011;8445;51.270;9.434;2023-07-28T06:29:38;10.65;;;9.75;;
16662;SDS011;8445;51.270;9.434;2023-07-28T06:32:04;10.75;;;9.98;;
16662;SDS011;8445;51.270;9.434;2023-07-28T06:34:29;11.73;;;10.68;;
16662;SDS011;8445;51.270;9.434;2023-07-28T06:36:57;10.05;;;9.18;;
16662;SDS011;8445;51.270;9.434;2023-07-28T06:39:23;11.65;;;8.93;;
16662;SDS011;8445;51.270;9.434;2023-07-28T06:41:50;9.63;;;8.88;;
16662;SDS011;8445;51.270;9.434;2023-07-28T06:44:16;10.95;;;10.15;;
16662;SDS011;8445;51.270;9.434;2023-07-28T06:46:41;9.70;;;9.07;;
16662;SDS011;8445;51.270;9.434;2023-07-28T06:49:07;10.45;;;9.60;;
16662;SDS011;8445;51.270;9.434;2023-07-28T06:51:33;10.15;;;9.55;;
16662;SDS011;8445;51.270;9.434;2023-07-28T06:53:59;9.70;;;8.85;;
16662;SDS011;8445;51.270;9.434;2023-07-28T06:56:27;9.55;;;8.60;;
16662;SDS011;8445;51.270;9.434;2023-07-28T06:58:55;10.40;;;9.70;;
16662;SDS011;8445;51.270;9.434;2023-07-28T07:01:20;10.57;;;9.75;;
16662;SDS011;8445;51.270;9.434;2023-07-28T07:03:47;10.55;;;9.85;;
16662;SDS011;8445;51.270;9.434;2023-07-28T07:06:12;12.32;;;11.45;;
16662;SDS011;8445;51.270;9.434;2023-07-28T07:08:39;10.65;;;9.95;;
16662;SDS011;8445;51.270;9.434;2023-07-28T07:11:04;9.77;;;9.27;;
16662;SDS011;8445;51.270;9.434;2023-07-28T07:13:31;10.27;;;9.73;;
16662;SDS011;8445;51.270;9.434;2023-07-28T07:15:57;10.85;;;9.60;;
16662;SDS011;8445;51.270;9.434;2023-07-28T07:18:22;10.88;;;10.07;;
16662;SDS011;8445;51.270;9.434;2023-07-28T07:20:47;10.82;;;9.90;;
16662;SDS011;8445;51.270;9.434;2023-07-28T07:23:13;11.07;;;10.27;;
16662;SDS011;8445;51.270;9.434;2023-07-28T07:25:40;10.60;;;10.02;;
16662;SDS011;8445;51.270;9.434;2023-07-28T07:28:05;10.60;;;9.90;;
16662;SDS011;8445;51.270;9.434;2023-07-28T07:30:32;11.25;;;10.65;;
16662;SDS011;8445;51.270;9.434;2023-07-28T07:32:58;10.90;;;10.13;;
16662;SDS011;8445;51.270;9.434;2023-07-28T07:35:23;11.07;;;10.27;;
16662;SDS011;8445;51.270;9.434;2023-07-28T07:37:48;10.65;;;9.88;;
16662;SDS011;8445;51.270;9.434;2023-07-28T07:40:14;9.43;;;8.93;;
16662;SDS011;8445;51.270;9.434;2023-07-28T07:42:44;9.77;;;9.27;;
16662;SDS011;8445;51.270;9.434;2023-07-28T07:45:13;10.15;;;9.57;;
16662;SDS011;8445;51.270;9.434;2023-07-28T07:47:39;9.00;;;8.50;;
16662;SDS011;8445;51.270;9.434;2023-07-28T07:50:06;9.30;;;8.90;;
16662;SDS011;8445;51.270;9.434;2023-07-28T07:52:33;9.23;;;8.63;;
16662;SDS011;8445;51.270;9.434;2023-07-28T07:54:59;9.23;;;8.73;;
16662;SDS011;8445;51.270;9.434;2023-07-28T07:57:24;9.35;;;8.30;;
16662;SDS011;8445;51.270;9.434;2023-07-28T07:59:49;9.10;;;8.60;;
16662;SDS011;8445;51.270;9.434;2023-07-28T08:02:18;9.60;;;9.10;;
16662;SDS011;8445;51.270;9.434;2023-07-28T08:04:43;9.90;;;9.07;;
16662;SDS011;8445;51.270;9.434;2023-07-28T08:07:08;10.15;;;9.52;;
16662;SDS011;8445;51.270;9.434;2023-07-28T08:09:34;9.60;;;9.15;;
16662;SDS011;8445;51.270;9.434;2023-07-28T08:11:59;9.50;;;9.00;;
16662;SDS011;8445;51.270;9.434;2023-07-28T08:14:25;10.15;;;9.63;;
16662;SDS011;8445;51.270;9.434;2023-07-28T08:16:50;9.18;;;8.77;;
16662;SDS011;8445;51.270;9.434;2023-07-28T08:19:16;10.15;;;9.55;;
16662;SDS011;8445;51.270;9.434;2023-07-28T08:21:41;10.05;;;9.57;;
16662;SDS011;8445;51.270;9.434;2023-07-28T08:24:06;9.35;;;8.85;;
16662;SDS011;8445;51.270;9.434;2023-07-28T08:26:32;9.65;;;8.80;;
16662;SDS011;8445;51.270;9.434;2023-07-28T08:28:57;8.98;;;8.50;;
16662;SDS011;8445;51.270;9.434;2023-07-28T08:31:23;8.73;;;8.30;;
16662;SDS011;8445;51.270;9.434;2023-07-28T08:33:48;9.60;;;9.00;;
16662;SDS011;8445;51.270;9.434;2023-07-28T08:36:13;9.60;;;9.10;;
16662;SDS011;8445;51.270;9.434;2023-07-28T08:38:39;8.80;;;8.30;;
16662;SDS011;8445;51.270;9.434;2023-07-28T08:41:04;8.35;;;7.85;;
16662;SDS011;8445;51.270;9.434;2023-07-28T08:43:31;8.80;;;8.40;;
16662;SDS011;8445;51.270;9.434;2023-07-28T08:45:56;8.88;;;8.35;;
16662;SDS011;8445;51.270;9.434;2023-07-28T08:48:22;9.10;;;8.70;;
16662;SDS011;8445;51.270;9.434;2023-07-28T08:50:48;9.30;;;8.90;;
16662;SDS011;8445;51.270;9.434;2023-07-28T08:53:14;9.98;;;9.38;;
16662;SDS011;8445;51.270;9.434;2023-07-28T08:55:39;9.75;;;9.10;;
16662;SDS011;8445;51.270;9.434;2023-07-28T08:58:14;9.27;;;8.68;;
16662;SDS011;8445;51.270;9.434;2023-07-28T09:00:40;13.13;;;10.55;;
16662;SDS011;8445;51.270;9.434;2023-07-28T09:03:08;10.05;;;9.27;;
16662;SDS011;8445;51.270;9.434;2023-07-28T09:05:33;9.95;;;9.55;;
16662;SDS011;8445;51.270;9.434;2023-07-28T09:07:58;10.18;;;9.68;;
16662;SDS011;8445;51.270;9.434;2023-07-28T09:10:24;9.70;;;9.07;;
16662;SDS011;8445;51.270;9.434;2023-07-28T09:12:50;10.10;;;9.70;;
16662;SDS011;8445;51.270;9.434;2023-07-28T09:15:15;9.50;;;9.00;;
16662;SDS011;8445;51.270;9.434;2023-07-28T09:17:44;10.60;;;10.00;;
16662;SDS011;8445;51.270;9.434;2023-07-28T09:20:12;10.13;;;9.60;;
16662;SDS011;8445;51.270;9.434;2023-07-28T09:22:38;9.45;;;8.88;;
16662;SDS011;8445;51.270;9.434;2023-07-28T09:25:10;8.73;;;8.20;;
16662;SDS011;8445;51.270;9.434;2023-07-28T09:27:36;9.27;;;8.50;;
16662;SDS011;8445;51.270;9.434;2023-07-28T09:30:05;9.00;;;8.60;;
16662;SDS011;8445;51.270;9.434;2023-07-28T09:32:32;9.40;;;9.00;;
16662;SDS011;8445;51.270;9.434;2023-07-28T09:35:10;9.02;;;8.63;;
16662;SDS011;8445;51.270;9.434;2023-07-28T09:37:38;8.90;;;8.50;;
16662;SDS011;8445;51.270;9.434;2023-07-28T09:40:04;10.07;;;9.32;;
16662;SDS011;8445;51.270;9.434;2023-07-28T09:42:32;9.10;;;8.60;;
16662;SDS011;8445;51.270;9.434;2023-07-28T09:44:58;10.20;;;9.73;;
16662;SDS011;8445;51.270;9.434;2023-07-28T09:47:24;9.32;;;8.82;;
16662;SDS011;8445;51.270;9.434;2023-07-28T09:49:49;9.60;;;9.00;;
16662;SDS011;8445;51.270;9.434;2023-07-28T09:52:15;10.40;;;9.80;;
16662;SDS011;8445;51.270;9.434;2023-07-28T09:54:43;9.85;;;9.35;;
16662;SDS011;8445;51.270;9.434;2023-07-28T09:57:20;10.30;;;9.80;;
16662;SDS011;8445;51.270;9.434;2023-07-28T09:59:47;9.80;;;9.32;;
16662;SDS011;8445;51.270;9.434;2023-07-28T10:02:13;10.38;;;9.70;;
16662;SDS011;8445;51.270;9.434;2023-07-28T10:04:39;10.68;;;10.10;;
16662;SDS011;8445;51.270;9.434;2023-07-28T10:07:05;10.73;;;10.05;;
16662;SDS011;8445;51.270;9.434;2023-07-28T10:09:31;9.00;;;8.60;;
16662;SDS011;8445;51.270;9.434;2023-07-28T10:12:01;11.15;;;10.65;;
16662;SDS011;8445;51.270;9.434;2023-07-28T10:14:29;12.05;;;11.45;;
16662;SDS011;8445;51.270;9.434;2023-07-28T10:16:56;12.77;;;12.07;;
16662;SDS011;8445;51.270;9.434;2023-07-28T10:19:29;11.10;;;10.60;;
16662;SDS011;8445;51.270;9.434;2023-07-28T10:22:09;11.32;;;10.57;;
16662;SDS011;8445;51.270;9.434;2023-07-28T10:24:52;7.60;;;7.20;;
16662;SDS011;8445;51.270;9.434;2023-07-28T10:27:35;12.32;;;11.52;;
16662;SDS011;8445;51.270;9.434;2023-07-28T10:30:14;11.55;;;10.60;;
16662;SDS011;8445;51.270;9.434;2023-07-28T10:32:55;10.60;;;10.00;;
16662;SDS011;8445;51.270;9.434;2023-07-28T10:35:27;10.95;;;10.45;;
16662;SDS011;8445;51.270;9.434;2023-07-28T10:37:57;12.27;;;11.25;;
16662;SDS011;8445;51.270;9.434;2023-07-28T10:40:28;10.93;;;10.43;;
16662;SDS011;8445;51.270;9.434;2023-07-28T10:43:17;8.68;;;8.27;;
16662;SDS011;8445;51.270;9.434;2023-07-28T10:45:46;8.65;;;8.15;;
16662;SDS011;8445;51.270;9.434;2023-07-28T10:48:16;8.18;;;7.78;;
16662;SDS011;8445;51.270;9.434;2023-07-28T10:50:54;8.80;;;8.40;;
16662;SDS011;8445;51.270;9.434;2023-07-28T10:53:22;11.30;;;10.80;;
16662;SDS011;8445;51.270;9.434;2023-07-28T10:55:52;7.82;;;7.20;;
16662;SDS011;8445;51.270;9.434;2023-07-28T10:58:20;7.95;;;7.65;;
16662;SDS011;8445;51.270;9.434;2023-07-28T11:00:46;7.75;;;7.45;;
16662;SDS011;8445;51.270;9.434;2023-07-28T11:03:12;8.80;;;8.40;;
16662;SDS011;8445;51.270;9.434;2023-07-28T11:05:37;8.88;;;8.40;;
16662;SDS011;8445;51.270;9.434;2023-07-28T11:08:03;10.50;;;10.00;;
16662;SDS011;8445;51.270;9.434;2023-07-28T11:10:28;10.27;;;9.77;;
16662;SDS011;8445;51.270;9.434;2023-07-28T11:12:56;10.80;;;10.30;;
16662;SDS011;8445;51.270;9.434;2023-07-28T11:15:25;10.85;;;10.25;;
16662;SDS011;8445;51.270;9.434;2023-07-28T11:17:51;10.60;;;10.10;;
16662;SDS011;8445;51.270;9.434;2023-07-28T11:22:46;11.18;;;10.50;;
16662;SDS011;8445;51.270;9.434;2023-07-28T11:25:11;8.13;;;7.55;;
16662;SDS011;8445;51.270;9.434;2023-07-28T11:27:37;9.25;;;8.82;;
16662;SDS011;8445;51.270;9.434;2023-07-28T11:30:03;7.95;;;7.43;;
16662;SDS011;8445;51.270;9.434;2023-07-28T11:32:30;11.02;;;10.43;;
16662;SDS011;8445;51.270;9.434;2023-07-28T11:34:55;8.05;;;7.50;;
16662;SDS011;8445;51.270;9.434;2023-07-28T11:37:20;9.85;;;9.35;;
16662;SDS011;8445;51.270;9.434;2023-07-28T11:39:46;9.80;;;9.30;;
16662;SDS011;8445;51.270;9.434;2023-07-28T11:42:12;9.25;;;8.85;;
16662;SDS011;8445;51.270;9.434;2023-07-28T11:44:37;10.88;;;10.38;;
16662;SDS011;8445;51.270;9.434;2023-07-28T11:47:04;10.05;;;9.57;;
16662;SDS011;8445;51.270;9.434;2023-07-28T11:49:30;10.52;;;10.02;;
16662;SDS011;8445;51.270;9.434;2023-07-28T11:51:56;12.02;;;11.38;;
16662;SDS011;8445;51.270;9.434;2023-07-28T11:54:24;8.10;;;7.70;;
16662;SDS011;8445;51.270;9.434;2023-07-28T11:56:53;7.85;;;7.45;;
16662;SDS011;8445;51.270;9.434;2023-07-28T11:59:19;8.35;;;7.95;;
16662;SDS011;8445;51.270;9.434;2023-07-28T12:01:51;9.20;;;8.80;;
16662;SDS011;8445;51.270;9.434;2023-07-28T12:04:24;7.78;;;7.47;;
16662;SDS011;8445;51.270;9.434;2023-07-28T12:12:17;10.68;;;10.18;;
16662;SDS011;8445;51.270;9.434;2023-07-28T12:14:43;11.45;;;10.95;;
16662;SDS011;8445;51.270;9.434;2023-07-28T12:17:15;8.07;;;7.78;;
16662;SDS011;8445;51.270;9.434;2023-07-28T12:19:41;8.50;;;8.10;;
16662;SDS011;8445;51.270;9.434;2023-07-28T12:22:07;9.20;;;8.70;;
16662;SDS011;8445;51.270;9.434;2023-07-28T12:24:33;10.02;;;9.43;;
16662;SDS011;8445;51.270;9.434;2023-07-28T12:26:58;7.28;;;6.97;;
16662;SDS011;8445;51.270;9.434;2023-07-28T12:29:24;7.03;;;6.57;;
16662;SDS011;8445;51.270;9.434;2023-07-28T12:31:52;7.13;;;6.63;;
16662;SDS011;8445;51.270;9.434;2023-07-28T12:34:17;7.70;;;7.18;;
16662;SDS011;8445;51.270;9.434;2023-07-28T12:36:42;8.73;;;8.30;;
16662;SDS011;8445;51.270;9.434;2023-07-28T12:39:08;6.90;;;6.50;;
16662;SDS011;8445;51.270;9.434;2023-07-28T12:41:33;7.00;;;6.70;;
16662;SDS011;8445;51.270;9.434;2023-07-28T12:43:59;9.07;;;8.68;;
16662;SDS011;8445;51.270;9.434;2023-07-28T12:46:24;7.30;;;7.00;;
16662;SDS011;8445;51.270;9.434;2023-07-28T12:48:49;8.15;;;7.65;;
16662;SDS011;8445;51.270;9.434;2023-07-28T12:51:15;8.00;;;7.70;;
16662;SDS011;8445;51.270;9.434;2023-07-28T12:53:40;7.60;;;7.10;;
16662;SDS011;8445;51.270;9.434;2023-07-28T12:56:06;8.50;;;8.10;;
16662;SDS011;8445;51.270;9.434;2023-07-28T12:58:31;8.32;;;7.93;;
16662;SDS011;8445;51.270;9.434;2023-07-28T13:00:58;8.68;;;8.27;;
16662;SDS011;8445;51.270;9.434;2023-07-28T13:03:26;7.82;;;7.47;;
16662;SDS011;8445;51.270;9.434;2023-07-28T13:05:51;8.65;;;8.25;;
16662;SDS011;8445;51.270;9.434;2023-07-28T13:08:17;9.02;;;8.60;;
16662;SDS011;8445;51.270;9.434;2023-07-28T13:10:42;7.88;;;7.47;;
16662;SDS011;8445;51.270;9.434;2023-07-28T13:13:08;9.25;;;8.75;;
16662;SDS011;8445;51.270;9.434;2023-07-28T13:15:33;9.30;;;8.90;;
16662;SDS011;8445;51.270;9.434;2023-07-28T13:17:59;8.98;;;8.55;;
16662;SDS011;8445;51.270;9.434;2023-07-28T13:20:24;9.55;;;8.85;;
16662;SDS011;8445;51.270;9.434;2023-07-28T13:22:49;8.73;;;8.30;;
16662;SDS011;8445;51.270;9.434;2023-07-28T13:25:15;8.90;;;8.50;;
16662;SDS011;8445;51.270;9.434;2023-07-28T13:27:40;9.00;;;8.60;;
16662;SDS011;8445;51.270;9.434;2023-07-28T13:30:06;9.57;;;9.18;;
16662;SDS011;8445;51.270;9.434;2023-07-28T13:32:31;8.70;;;8.30;;
16662;SDS011;8445;51.270;9.434;2023-07-28T13:34:57;9.50;;;9.00;;
16662;SDS011;8445;51.270;9.434;2023-07-28T13:37:22;9.43;;;8.93;;
16662;SDS011;8445;51.270;9.434;2023-07-28T13:39:47;8.48;;;8.07;;
16662;SDS011;8445;51.270;9.434;2023-07-28T13:42:13;8.52;;;8.13;;
16662;SDS011;8445;51.270;9.434;2023-07-28T13:44:40;8.57;;;8.18;;
16662;SDS011;8445;51.270;9.434;2023-07-28T13:47:06;7.60;;;7.30;;
16662;SDS011;8445;51.270;9.434;2023-07-28T13:49:31;8.50;;;8.00;;
16662;SDS011;8445;51.270;9.434;2023-07-28T13:52:00;7.80;;;7.50;;
16662;SDS011;8445;51.270;9.434;2023-07-28T13:54:26;9.02;;;8.52;;
16662;SDS011;8445;51.270;9.434;2023-07-28T13:56:51;8.48;;;8.07;;
16662;SDS011;8445;51.270;9.434;2023-07-28T13:59:16;8.73;;;8.07;;
16662;SDS011;8445;51.270;9.434;2023-07-28T14:01:42;8.10;;;7.70;;
16662;SDS011;8445;51.270;9.434;2023-07-28T14:04:10;9.13;;;8.73;;
16662;SDS011;8445;51.270;9.434;2023-07-28T14:06:38;8.50;;;8.10;;
16662;SDS011;8445;51.270;9.434;2023-07-28T14:09:03;8.27;;;7.88;;
16662;SDS011;8445;51.270;9.434;2023-07-28T14:11:28;8.30;;;7.80;;
16662;SDS011;8445;51.270;9.434;2023-07-28T14:13:54;8.32;;;7.97;;
16662;SDS011;8445;51.270;9.434;2023-07-28T14:16:19;8.00;;;7.60;;
16662;SDS011;8445;51.270;9.434;2023-07-28T14:18:45;8.63;;;8.05;;
16662;SDS011;8445;51.270;9.434;2023-07-28T14:21:13;9.00;;;8.60;;
16662;SDS011;8445;51.270;9.434;2023-07-28T14:23:38;10.20;;;9.60;;
16662;SDS011;8445;51.270;9.434;2023-07-28T14:26:03;9.55;;;9.05;;
16662;SDS011;8445;51.270;9.434;2023-07-28T14:28:29;8.70;;;8.30;;
16662;SDS011;8445;51.270;9.434;2023-07-28T14:30:54;7.65;;;7.35;;
16662;SDS011;8445;51.270;9.434;2023-07-28T14:33:20;9.63;;;9.13;;
16662;SDS011;8445;51.270;9.434;2023-07-28T14:35:46;8.05;;;7.75;;
16662;SDS011;8445;51.270;9.434;2023-07-28T14:38:12;8.55;;;8.15;;
16662;SDS011;8445;51.270;9.434;2023-07-28T14:40:37;8.93;;;8.38;;
16662;SDS011;8445;51.270;9.434;2023-07-28T14:43:03;9.80;;;9.30;;
16662;SDS011;8445;51.270;9.434;2023-07-28T14:45:29;10.32;;;9.80;;
16662;SDS011;8445;51.270;9.434;2023-07-28T14:47:55;9.30;;;8.82;;
16662;SDS011;8445;51.270;9.434;2023-07-28T14:50:20;9.50;;;9.00;;
16662;SDS011;8445;51.270;9.434;2023-07-28T14:52:46;9.25;;;8.82;;
16662;SDS011;8445;51.270;9.434;2023-07-28T14:55:11;8.05;;;7.60;;
16662;SDS011;8445;51.270;9.434;2023-07-28T14:57:37;8.52;;;8.02;;
16662;SDS011;8445;51.270;9.434;2023-07-28T15:00:02;7.93;;;7.53;;
16662;SDS011;8445;51.270;9.434;2023-07-28T15:02:28;9.02;;;8.63;;